Time;durP1;ratioP1;P1;durP2;ratioP2;P2;SDS_P1;SDS_P2;PMS_P1;PMS_P2;Temp;Humidity;BMP_temperature;BMP_pressure;BME280_temperature;BME280_humidity;BME280_pressure;Samples;Min_cycle;Max_cycle;Signal;HPM_P1;HPM_P2
2022/07/28 00:01:48;;;;;;;7.88;6.72;;;;;;;;;;5034724;28;20049;-71
2022/07/28 00:04:14;;;;;;;8.68;7.25;;;;;;;;;;5024233;28;20133;-70
2022/07/28 00:06:39;;;;;;;10.52;7.35;;;;;;;;;;5028315;28;20557;-74
2022/07/28 00:09:04;;;;;;;9.55;6.65;;;;;;;;;;5037691;28;20048;-71
2022/07/28 00:11:30;;;;;;;7.95;7.15;;;;;;;;;;5041479;28;20469;-73
2022/07/28 00:13:55;;;;;;;8.52;7.30;;;;;;;;;;5041595;28;20040;-71
2022/07/28 00:16:20;;;;;;;10.45;7.35;;;;;;;;;;5041033;28;20124;-74
2022/07/28 00:18:46;;;;;;;11.32;8.32;;;;;;;;;;5034541;28;21178;-73
2022/07/28 00:21:12;;;;;;;9.07;7.40;;;;;;;;;;5040873;28;20044;-73
2022/07/28 00:23:37;;;;;;;10.10;7.43;;;;;;;;;;5042037;28;20044;-70
2022/07/28 00:26:03;;;;;;;9.45;7.50;;;;;;;;;;5025569;28;20057;-72
2022/07/28 00:28:28;;;;;;;10.63;7.63;;;;;;;;;;5024072;28;20067;-71
2022/07/28 00:30:54;;;;;;;12.88;7.80;;;;;;;;;;5023572;28;20502;-74
2022/07/28 00:33:20;;;;;;;10.45;7.63;;;;;;;;;;5038267;28;20059;-71
2022/07/28 00:35:45;;;;;;;11.10;8.00;;;;;;;;;;5025133;28;20064;-70
2022/07/28 00:38:11;;;;;;;14.38;7.90;;;;;;;;;;5024128;28;20053;-74
2022/07/28 00:43:20;;;;;;;11.65;8.30;;;;;;;;;;5026366;28;20045;-73
2022/07/28 00:45:46;;;;;;;11.50;8.38;;;;;;;;;;5027209;28;20484;-71
2022/07/28 00:48:12;;;;;;;16.02;7.53;;;;;;;;;;5028889;28;20144;-73
2022/07/28 00:50:38;;;;;;;10.65;8.13;;;;;;;;;;5026836;28;20186;-70
2022/07/28 00:53:05;;;;;;;15.40;8.38;;;;;;;;;;5021174;28;20068;-72
2022/07/28 00:55:31;;;;;;;9.98;8.27;;;;;;;;;;5038424;28;20443;-71
2022/07/28 00:57:56;;;;;;;9.65;7.78;;;;;;;;;;5023924;28;20176;-70
2022/07/28 01:00:22;;;;;;;16.40;8.65;;;;;;;;;;5022336;28;20055;-74
2022/07/28 01:02:48;;;;;;;9.43;7.90;;;;;;;;;;5041577;28;20049;-74
2022/07/28 01:05:14;;;;;;;9.23;7.60;;;;;;;;;;5040348;28;20415;-73
2022/07/28 01:08:00;;;;;;;11.23;8.40;;;;;;;;;;5025075;28;20141;-70
2022/07/28 01:10:53;;;;;;;12.38;8.07;;;;;;;;;;5038224;28;20068;-73
2022/07/28 01:13:41;;;;;;;11.63;7.45;;;;;;;;;;5039901;28;20059;-72
2022/07/28 01:16:07;;;;;;;11.77;7.90;;;;;;;;;;5039425;28;20052;-70
2022/07/28 01:18:48;;;;;;;11.07;8.45;;;;;;;;;;5026602;28;20114;-73
2022/07/28 01:21:27;;;;;;;9.32;8.27;;;;;;;;;;5038010;28;20503;-73
2022/07/28 01:24:40;;;;;;;11.68;8.23;;;;;;;;;;5049636;28;20064;-74
2022/07/28 01:27:31;;;;;;;15.25;8.50;;;;;;;;;;4998422;28;20216;-71
2022/07/28 01:30:25;;;;;;;13.15;7.90;;;;;;;;;;4998193;28;20511;-73
2022/07/28 01:32:57;;;;;;;12.93;7.80;;;;;;;;;;5015583;28;20049;-69
2022/07/28 01:35:25;;;;;;;10.40;8.00;;;;;;;;;;5023301;28;20506;-73
2022/07/28 01:37:56;;;;;;;16.23;7.57;;;;;;;;;;5025857;28;20092;-70
2022/07/28 01:40:26;;;;;;;11.88;7.65;;;;;;;;;;5038135;28;20116;-73
2022/07/28 01:42:55;;;;;;;11.55;8.20;;;;;;;;;;5040527;28;20728;-70
2022/07/28 01:45:22;;;;;;;12.20;7.95;;;;;;;;;;5030436;28;20050;-70
2022/07/28 01:47:49;;;;;;;16.35;8.02;;;;;;;;;;5028996;28;20047;-72
2022/07/28 01:50:17;;;;;;;11.55;7.75;;;;;;;;;;5039007;28;20040;-73
2022/07/28 01:52:46;;;;;;;8.63;7.60;;;;;;;;;;5040196;28;20041;-73
2022/07/28 01:55:12;;;;;;;8.02;7.22;;;;;;;;;;5041173;28;20057;-73
2022/07/28 01:57:40;;;;;;;11.10;7.30;;;;;;;;;;5032619;28;20044;-70
2022/07/28 02:00:12;;;;;;;8.55;7.53;;;;;;;;;;5023680;28;20571;-71
2022/07/28 02:02:38;;;;;;;;;;;;;;;;;;5037129;28;20806;-73
2022/07/28 02:05:05;;;;;;;9.25;7.38;;;;;;;;;;5022790;28;19951;-74
2022/07/28 02:07:32;;;;;;;10.07;7.40;;;;;;;;;;5039801;28;20053;-71
2022/07/28 02:09:59;;;;;;;9.25;7.20;;;;;;;;;;5032774;28;20049;-73
2022/07/28 02:12:26;;;;;;;7.75;6.82;;;;;;;;;;5037577;28;20045;-72
2022/07/28 02:14:53;;;;;;;9.23;6.70;;;;;;;;;;5035667;28;20048;-72
2022/07/28 02:17:25;;;;;;;10.05;7.22;;;;;;;;;;5022188;28;20835;-72
2022/07/28 02:19:52;;;;;;;10.52;7.47;;;;;;;;;;5039784;28;20045;-72
2022/07/28 02:22:19;;;;;;;9.57;7.20;;;;;;;;;;5038342;28;20515;-71
2022/07/28 02:24:47;;;;;;;10.13;6.50;;;;;;;;;;5039422;28;20056;-72
2022/07/28 02:27:22;;;;;;;8.85;7.53;;;;;;;;;;5039718;28;20057;-73
2022/07/28 02:29:51;;;;;;;8.13;7.10;;;;;;;;;;5032457;28;20053;-72
2022/07/28 02:32:38;;;;;;;10.73;6.88;;;;;;;;;;5037733;28;20147;-70
2022/07/28 02:35:41;;;;;;;11.93;7.38;;;;;;;;;;5039467;28;20933;-73
2022/07/28 02:38:13;;;;;;;9.98;7.30;;;;;;;;;;5034950;28;20056;-71
2022/07/28 02:40:39;;;;;;;;;;;;;;;;;;5032659;28;20044;-70
2022/07/28 02:43:11;;;;;;;9.82;7.80;;;;;;;;;;5038981;28;20371;-72
2022/07/28 02:45:43;;;;;;;8.35;7.43;;;;;;;;;;5030583;28;20144;-71
2022/07/28 02:48:12;;;;;;;9.30;7.30;;;;;;;;;;5039369;28;20056;-71
2022/07/28 02:50:39;;;;;;;15.30;7.72;;;;;;;;;;5040313;28;20041;-70
2022/07/28 02:53:06;;;;;;;11.43;7.93;;;;;;;;;;5039629;28;20052;-73
2022/07/28 02:55:32;;;;;;;12.40;7.80;;;;;;;;;;5038584;28;20065;-72
2022/07/28 02:57:59;;;;;;;10.02;7.22;;;;;;;;;;5039213;28;20044;-72
2022/07/28 03:00:26;;;;;;;13.77;7.70;;;;;;;;;;5036078;28;20059;-70
2022/07/28 03:02:54;;;;;;;8.88;7.78;;;;;;;;;;5039528;28;20057;-68
2022/07/28 03:05:20;;;;;;;10.07;7.88;;;;;;;;;;5040118;28;20053;-71
2022/07/28 03:07:51;;;;;;;9.85;7.75;;;;;;;;;;5038259;28;20052;-69
2022/07/28 03:10:21;;;;;;;8.52;7.63;;;;;;;;;;5039594;28;20049;-70
2022/07/28 03:12:47;;;;;;;11.38;8.70;;;;;;;;;;5034132;28;20059;-70
2022/07/28 03:15:13;;;;;;;9.60;8.00;;;;;;;;;;5038710;28;20045;-70
2022/07/28 03:17:38;;;;;;;9.25;8.25;;;;;;;;;;5031188;28;20052;-69
2022/07/28 03:20:05;;;;;;;14.63;8.35;;;;;;;;;;5031224;28;20049;-71
2022/07/28 03:22:30;;;;;;;11.65;8.13;;;;;;;;;;5039135;28;20049;-70
2022/07/28 03:24:57;;;;;;;13.35;8.98;;;;;;;;;;5039944;28;20373;-71
2022/07/28 03:27:37;;;;;;;10.93;8.73;;;;;;;;;;5038577;28;20511;-71
2022/07/28 03:30:05;;;;;;;10.20;8.75;;;;;;;;;;5037944;28;20045;-71
2022/07/28 03:32:37;;;;;;;10.32;8.40;;;;;;;;;;5037986;28;20056;-69
2022/07/28 03:35:05;;;;;;;9.82;8.10;;;;;;;;;;5039635;28;20056;-73
2022/07/28 03:37:41;;;;;;;10.20;8.07;;;;;;;;;;5040920;28;20056;-71
2022/07/28 03:40:10;;;;;;;11.48;8.05;;;;;;;;;;5042031;28;20144;-70
2022/07/28 03:42:36;;;;;;;12.57;8.73;;;;;;;;;;5042270;28;20562;-72
2022/07/28 03:45:04;;;;;;;11.50;8.32;;;;;;;;;;5036267;28;20045;-71
2022/07/28 03:47:29;;;;;;;12.32;9.50;;;;;;;;;;5028750;28;20538;-69
2022/07/28 03:49:55;;;;;;;11.57;9.05;;;;;;;;;;5038999;28;20572;-71
2022/07/28 03:52:20;;;;;;;9.32;8.40;;;;;;;;;;5038412;28;20033;-69
2022/07/28 03:54:46;;;;;;;10.32;8.85;;;;;;;;;;5043188;28;20040;-72
2022/07/28 03:57:11;;;;;;;14.13;9.13;;;;;;;;;;5031210;28;20053;-71
2022/07/28 03:59:36;;;;;;;11.13;8.75;;;;;;;;;;5026523;28;20048;-70
2022/07/28 04:02:02;;;;;;;11.60;9.05;;;;;;;;;;5031865;28;20802;-72
2022/07/28 04:04:28;;;;;;;13.43;8.27;;;;;;;;;;5042437;28;20481;-69
2022/07/28 04:06:53;;;;;;;10.02;8.75;;;;;;;;;;5042775;28;20059;-70
2022/07/28 04:09:19;;;;;;;10.85;8.30;;;;;;;;;;5042414;28;20045;-69
2022/07/28 04:11:44;;;;;;;10.23;7.95;;;;;;;;;;5041962;28;20391;-70
2022/07/28 04:14:10;;;;;;;10.02;8.30;;;;;;;;;;5040872;28;20541;-69
2022/07/28 04:16:35;;;;;;;12.02;8.60;;;;;;;;;;5040527;28;20047;-70
2022/07/28 04:19:01;;;;;;;11.55;8.75;;;;;;;;;;5042576;28;20514;-71
2022/07/28 04:21:26;;;;;;;8.25;7.28;;;;;;;;;;5042452;28;20037;-69
2022/07/28 04:23:52;;;;;;;10.55;7.63;;;;;;;;;;5033920;28;20100;-69
2022/07/28 04:26:17;;;;;;;14.10;7.82;;;;;;;;;;5030878;28;20048;-69
2022/07/28 04:28:44;;;;;;;14.75;7.53;;;;;;;;;;5042688;28;20044;-69
2022/07/28 04:31:10;;;;;;;11.07;8.25;;;;;;;;;;5040778;28;20506;-69
2022/07/28 04:33:35;;;;;;;10.57;7.78;;;;;;;;;;5041827;28;20037;-70
2022/07/28 04:36:01;;;;;;;8.88;7.88;;;;;;;;;;5037231;28;20395;-69
2022/07/28 04:38:27;;;;;;;12.38;8.55;;;;;;;;;;5029955;28;20049;-70
2022/07/28 04:40:53;;;;;;;13.98;8.60;;;;;;;;;;5036027;28;20130;-70
2022/07/28 04:43:18;;;;;;;10.00;8.52;;;;;;;;;;5036689;28;20052;-70
2022/07/28 04:45:45;;;;;;;10.52;8.27;;;;;;;;;;5035394;28;20045;-71
2022/07/28 04:48:11;;;;;;;9.70;8.35;;;;;;;;;;5028317;28;20052;-70
2022/07/28 04:50:39;;;;;;;10.82;8.02;;;;;;;;;;5031448;28;20033;-69
2022/07/28 04:53:05;;;;;;;11.35;8.48;;;;;;;;;;5027591;28;20049;-70
2022/07/28 04:55:30;;;;;;;12.88;8.88;;;;;;;;;;5023785;28;20045;-70
2022/07/28 04:57:56;;;;;;;9.48;8.13;;;;;;;;;;5024964;28;20046;-70
2022/07/28 05:00:21;;;;;;;10.90;8.50;;;;;;;;;;5023563;28;20049;-70
2022/07/28 05:02:47;;;;;;;11.13;8.13;;;;;;;;;;5036336;28;20041;-70
2022/07/28 05:05:13;;;;;;;11.73;8.93;;;;;;;;;;5026483;28;20033;-70
2022/07/28 05:07:39;;;;;;;9.10;8.00;;;;;;;;;;5026262;28;20057;-70
2022/07/28 05:10:07;;;;;;;9.38;7.50;;;;;;;;;;5031863;28;20399;-70
2022/07/28 05:12:32;;;;;;;12.18;8.75;;;;;;;;;;5039736;28;20048;-69
2022/07/28 05:14:58;;;;;;;10.90;8.70;;;;;;;;;;5039225;28;20045;-71
2022/07/28 05:17:24;;;;;;;14.40;9.00;;;;;;;;;;5038432;28;20053;-70
2022/07/28 05:19:50;;;;;;;12.82;7.75;;;;;;;;;;5039307;28;20063;-70
2022/07/28 05:22:16;;;;;;;8.68;7.13;;;;;;;;;;5039654;28;20048;-70
2022/07/28 05:24:41;;;;;;;9.65;5.97;;;;;;;;;;5040890;28;20116;-70
2022/07/28 05:27:07;;;;;;;11.10;5.88;;;;;;;;;;5036603;28;20109;-71
2022/07/28 05:29:33;;;;;;;8.73;5.80;;;;;;;;;;5039730;28;20132;-71
2022/07/28 05:31:58;;;;;;;7.47;5.68;;;;;;;;;;5026204;28;20057;-71
2022/07/28 05:34:24;;;;;;;10.75;5.82;;;;;;;;;;5030872;28;20060;-70
2022/07/28 05:36:49;;;;;;;7.30;5.40;;;;;;;;;;5040647;28;20049;-71
2022/07/28 05:39:15;;;;;;;9.77;6.00;;;;;;;;;;5039762;28;20536;-71
2022/07/28 05:41:40;;;;;;;7.68;5.93;;;;;;;;;;5031169;28;20045;-69
2022/07/28 05:44:06;;;;;;;6.45;5.30;;;;;;;;;;5040212;28;20479;-70
2022/07/28 05:46:31;;;;;;;6.43;5.65;;;;;;;;;;5039047;28;20399;-69
2022/07/28 05:48:57;;;;;;;7.10;5.40;;;;;;;;;;5041039;28;20136;-70
2022/07/28 05:51:23;;;;;;;5.70;5.20;;;;;;;;;;5038589;28;20048;-68
2022/07/28 05:53:48;;;;;;;7.80;5.88;;;;;;;;;;5026971;28;20053;-69
2022/07/28 05:56:14;;;;;;;7.65;5.28;;;;;;;;;;5036154;28;20048;-69
2022/07/28 05:58:39;;;;;;;9.07;5.22;;;;;;;;;;5039957;28;20048;-69
2022/07/28 06:01:10;;;;;;;6.38;4.85;;;;;;;;;;5037938;28;20059;-70
2022/07/28 06:03:45;;;;;;;6.18;5.03;;;;;;;;;;5020596;28;20156;-70
2022/07/28 06:06:10;;;;;;;7.63;5.45;;;;;;;;;;5034376;28;20063;-69
2022/07/28 06:08:36;;;;;;;11.18;5.10;;;;;;;;;;5038760;28;20048;-70
2022/07/28 06:11:08;;;;;;;9.23;5.60;;;;;;;;;;5037068;28;20431;-70
2022/07/28 06:13:33;;;;;;;;;;;;;;;;;;5037733;28;20049;-69
2022/07/28 06:15:59;;;;;;;5.20;4.80;;;;;;;;;;5037599;28;19989;-70
2022/07/28 06:18:24;;;;;;;8.43;5.07;;;;;;;;;;5040073;28;20048;-70
2022/07/28 06:20:50;;;;;;;6.20;5.30;;;;;;;;;;5040292;28;20411;-70
2022/07/28 06:23:19;;;;;;;7.25;5.43;;;;;;;;;;5035059;28;20059;-70
2022/07/28 06:25:44;;;;;;;5.85;5.25;;;;;;;;;;5021917;28;20056;-70
2022/07/28 06:28:10;;;;;;;6.00;5.32;;;;;;;;;;5039541;28;20053;-71
2022/07/28 06:30:35;;;;;;;7.05;5.07;;;;;;;;;;5035080;28;20562;-70
2022/07/28 06:33:01;;;;;;;8.05;5.10;;;;;;;;;;5026959;28;20051;-73
2022/07/28 06:35:26;;;;;;;7.65;5.63;;;;;;;;;;5025615;28;20147;-72
2022/07/28 06:37:52;;;;;;;6.15;5.40;;;;;;;;;;5025669;28;20103;-73
2022/07/28 06:40:19;;;;;;;10.45;5.72;;;;;;;;;;5034253;28;20048;-72
2022/07/28 06:42:45;;;;;;;6.60;4.65;;;;;;;;;;5032256;28;20060;-74
2022/07/28 06:45:12;;;;;;;5.95;4.85;;;;;;;;;;5027706;28;20053;-73
2022/07/28 06:47:37;;;;;;;6.38;5.22;;;;;;;;;;5031072;28;20496;-73
2022/07/28 06:50:04;;;;;;;9.15;5.03;;;;;;;;;;5027331;28;20053;-73
2022/07/28 06:52:31;;;;;;;9.43;5.07;;;;;;;;;;5035773;28;20056;-73
2022/07/28 06:54:56;;;;;;;5.60;5.03;;;;;;;;;;5033332;28;20533;-74
2022/07/28 06:57:22;;;;;;;6.65;5.10;;;;;;;;;;5027080;28;20174;-72
2022/07/28 06:59:48;;;;;;;7.38;5.13;;;;;;;;;;5034065;28;20044;-74
2022/07/28 07:02:15;;;;;;;6.32;5.00;;;;;;;;;;5023659;28;20395;-73
2022/07/28 07:04:40;;;;;;;5.47;4.65;;;;;;;;;;5034182;28;20045;-72
2022/07/28 07:07:06;;;;;;;7.80;5.18;;;;;;;;;;5031481;28;20504;-71
2022/07/28 07:09:31;;;;;;;5.20;4.50;;;;;;;;;;5030960;28;20049;-73
2022/07/28 07:11:57;;;;;;;8.75;5.00;;;;;;;;;;5030399;28;20145;-72
2022/07/28 07:14:23;;;;;;;5.40;4.40;;;;;;;;;;5034869;28;20147;-73
2022/07/28 07:16:49;;;;;;;8.40;4.80;;;;;;;;;;5035638;28;20589;-76
2022/07/28 07:19:15;;;;;;;8.70;4.60;;;;;;;;;;5039928;28;20045;-73
2022/07/28 07:21:40;;;;;;;5.78;4.55;;;;;;;;;;5036553;28;20052;-73
2022/07/28 07:24:06;;;;;;;7.93;5.30;;;;;;;;;;5036370;28;20045;-73
2022/07/28 07:26:32;;;;;;;9.88;4.78;;;;;;;;;;5029807;28;20045;-72
2022/07/28 07:28:57;;;;;;;5.70;4.28;;;;;;;;;;5038312;28;20045;-73
2022/07/28 07:31:23;;;;;;;7.70;4.32;;;;;;;;;;5028733;28;20045;-73
2022/07/28 07:33:48;;;;;;;8.48;4.43;;;;;;;;;;5036661;28;20540;-70
2022/07/28 07:36:14;;;;;;;5.00;4.50;;;;;;;;;;5042593;28;20074;-70
2022/07/28 07:38:39;;;;;;;5.40;4.25;;;;;;;;;;5026898;28;20827;-71
2022/07/28 07:41:05;;;;;;;5.47;4.32;;;;;;;;;;5031928;28;20045;-68
2022/07/28 07:43:30;;;;;;;6.72;4.03;;;;;;;;;;5039416;28;20099;-72
2022/07/28 07:45:55;;;;;;;4.57;4.18;;;;;;;;;;5031467;28;20052;-72
2022/07/28 07:48:22;;;;;;;4.57;4.18;;;;;;;;;;5031942;28;20132;-71
2022/07/28 07:50:47;;;;;;;4.93;4.43;;;;;;;;;;5034069;28;20037;-71
2022/07/28 07:53:13;;;;;;;7.25;4.90;;;;;;;;;;5031878;28;20038;-70
2022/07/28 07:55:38;;;;;;;11.10;4.32;;;;;;;;;;5031297;28;20411;-71
2022/07/28 07:58:04;;;;;;;6.35;4.57;;;;;;;;;;5027620;28;20048;-71
2022/07/28 08:00:30;;;;;;;5.15;3.97;;;;;;;;;;5028024;28;20365;-71
2022/07/28 08:02:56;;;;;;;6.65;4.40;;;;;;;;;;5029057;28;20519;-72
2022/07/28 08:05:22;;;;;;;4.93;4.30;;;;;;;;;;5029955;28;20053;-74
2022/07/28 08:07:47;;;;;;;6.43;4.25;;;;;;;;;;5042612;28;20045;-74
2022/07/28 08:10:13;;;;;;;4.40;3.90;;;;;;;;;;5042008;28;20052;-73
2022/07/28 08:12:38;;;;;;;5.43;4.22;;;;;;;;;;5038601;28;20095;-75
2022/07/28 08:15:04;;;;;;;4.97;4.38;;;;;;;;;;5035948;28;20091;-73
2022/07/28 08:17:30;;;;;;;4.57;4.18;;;;;;;;;;5031119;28;20053;-74
2022/07/28 08:19:56;;;;;;;6.32;3.92;;;;;;;;;;5033831;28;20094;-72
2022/07/28 08:22:22;;;;;;;5.35;4.13;;;;;;;;;;5032042;28;20060;-74
2022/07/28 08:24:47;;;;;;;5.32;3.78;;;;;;;;;;5029331;28;20045;-74
2022/07/28 08:27:13;;;;;;;4.50;3.83;;;;;;;;;;5032929;28;20123;-72
2022/07/28 08:29:38;;;;;;;5.30;3.60;;;;;;;;;;5034034;28;20106;-71
2022/07/28 08:32:04;;;;;;;4.05;3.65;;;;;;;;;;5034841;28;20122;-74
2022/07/28 08:34:30;;;;;;;5.78;4.00;;;;;;;;;;5041746;28;20177;-71
2022/07/28 08:36:56;;;;;;;6.40;3.80;;;;;;;;;;5039978;28;21387;-76
2022/07/28 08:39:22;;;;;;;4.60;3.85;;;;;;;;;;5029646;28;20913;-70
2022/07/28 08:41:53;;;;;;;6.72;4.10;;;;;;;;;;5041390;28;20052;-74
2022/07/28 08:44:22;;;;;;;5.63;3.65;;;;;;;;;;5034821;28;20619;-69
2022/07/28 08:46:48;;;;;;;7.55;4.10;;;;;;;;;;5038328;28;20052;-73
2022/07/28 08:49:14;;;;;;;4.18;3.78;;;;;;;;;;5038548;28;20055;-73
2022/07/28 08:51:41;;;;;;;6.68;4.03;;;;;;;;;;5032152;28;20496;-71
2022/07/28 08:54:08;;;;;;;5.60;3.80;;;;;;;;;;5034051;28;20053;-71
2022/07/28 08:56:37;;;;;;;3.58;2.80;;;;;;;;;;5025172;28;20068;-71
2022/07/28 08:59:02;;;;;;;6.88;3.60;;;;;;;;;;5038205;28;20045;-71
2022/07/28 09:01:28;;;;;;;3.75;3.38;;;;;;;;;;5040078;28;20106;-72
2022/07/28 09:03:54;;;;;;;4.07;3.50;;;;;;;;;;5040583;28;20057;-71
2022/07/28 09:06:20;;;;;;;6.22;3.03;;;;;;;;;;5030245;28;20053;-72
2022/07/28 09:08:46;;;;;;;5.15;3.80;;;;;;;;;;5024320;28;20049;-74
2022/07/28 09:11:11;;;;;;;4.60;3.50;;;;;;;;;;5023187;28;20526;-72
2022/07/28 09:13:37;;;;;;;4.80;3.10;;;;;;;;;;5029871;28;20132;-72
2022/07/28 09:16:02;;;;;;;8.32;3.65;;;;;;;;;;5029287;28;20057;-72
2022/07/28 09:18:28;;;;;;;3.85;3.45;;;;;;;;;;5029265;28;20041;-71
2022/07/28 09:20:54;;;;;;;5.07;3.15;;;;;;;;;;5036499;28;20080;-72
2022/07/28 09:23:19;;;;;;;3.25;2.95;;;;;;;;;;5029510;28;20427;-72
2022/07/28 09:25:46;;;;;;;3.58;3.22;;;;;;;;;;5032618;28;20146;-71
2022/07/28 09:28:16;;;;;;;3.33;2.90;;;;;;;;;;5035104;28;20053;-70
2022/07/28 09:30:48;;;;;;;3.42;3.13;;;;;;;;;;5031626;28;20076;-72
2022/07/28 09:33:18;;;;;;;5.72;2.92;;;;;;;;;;5021375;28;20050;-72
2022/07/28 09:35:52;;;;;;;7.07;3.03;;;;;;;;;;5033655;28;20076;-71
2022/07/28 09:38:20;;;;;;;3.00;2.65;;;;;;;;;;5040598;28;20114;-73
2022/07/28 09:40:57;;;;;;;7.78;2.60;;;;;;;;;;5036567;28;20041;-71
2022/07/28 09:43:42;;;;;;;6.53;2.60;;;;;;;;;;5030770;28;20695;-73
2022/07/28 09:46:20;;;;;;;8.60;2.90;;;;;;;;;;5030209;28;20523;-70
2022/07/28 09:48:48;;;;;;;5.30;3.00;;;;;;;;;;5028122;28;20045;-72
2022/07/28 09:51:16;;;;;;;7.63;3.28;;;;;;;;;;5040335;28;20048;-72
2022/07/28 09:53:42;;;;;;;6.90;2.80;;;;;;;;;;5038967;28;20044;-72
2022/07/28 09:56:09;;;;;;;7.20;3.10;;;;;;;;;;5031847;28;20044;-72
2022/07/28 09:58:35;;;;;;;4.95;3.20;;;;;;;;;;5034719;28;20045;-73
2022/07/28 10:01:11;;;;;;;4.05;3.10;;;;;;;;;;5031541;28;20037;-73
2022/07/28 10:03:39;;;;;;;5.70;2.80;;;;;;;;;;5028301;28;20629;-72
2022/07/28 10:06:10;;;;;;;4.32;3.30;;;;;;;;;;5030736;28;20103;-70
2022/07/28 10:08:41;;;;;;;5.25;2.95;;;;;;;;;;5038697;28;20045;-71
2022/07/28 10:11:07;;;;;;;;;;;;;;;;;;5028473;28;20094;-73
2022/07/28 10:13:32;;;;;;;3.83;3.30;;;;;;;;;;5027777;28;19924;-73
2022/07/28 10:16:11;;;;;;;3.65;2.80;;;;;;;;;;5031072;28;20415;-72
2022/07/28 10:18:39;;;;;;;4.20;2.83;;;;;;;;;;5036685;28;20091;-72
2022/07/28 10:21:12;;;;;;;5.75;2.75;;;;;;;;;;5035887;28;20491;-72
2022/07/28 10:23:38;;;;;;;5.07;2.80;;;;;;;;;;5035229;28;20522;-72
2022/07/28 10:26:09;;;;;;;5.05;2.72;;;;;;;;;;5039063;28;20044;-71
2022/07/28 10:28:37;;;;;;;5.32;2.92;;;;;;;;;;5027251;28;20793;-70
2022/07/28 10:31:06;;;;;;;4.40;2.60;;;;;;;;;;5038205;28;20102;-71
2022/07/28 10:33:32;;;;;;;7.82;2.80;;;;;;;;;;5040193;28;20045;-72
2022/07/28 10:35:59;;;;;;;6.03;2.33;;;;;;;;;;5035020;28;20053;-72
2022/07/28 10:38:28;;;;;;;2.55;2.20;;;;;;;;;;5032687;28;20041;-72
2022/07/28 10:40:56;;;;;;;7.10;2.75;;;;;;;;;;5032348;28;20037;-72
2022/07/28 10:43:22;;;;;;;6.03;2.63;;;;;;;;;;5025599;28;20053;-72
2022/07/28 10:45:48;;;;;;;10.55;2.88;;;;;;;;;;5029006;28;20063;-73
2022/07/28 10:48:14;;;;;;;5.43;2.80;;;;;;;;;;5031638;28;20639;-73
2022/07/28 10:50:43;;;;;;;7.25;2.67;;;;;;;;;;5033649;28;20500;-71
2022/07/28 10:53:15;;;;;;;4.65;2.78;;;;;;;;;;5032620;28;20042;-72
2022/07/28 10:55:47;;;;;;;4.15;2.50;;;;;;;;;;5035874;28;20086;-70
2022/07/28 10:58:28;;;;;;;3.55;2.28;;;;;;;;;;5035716;28;20111;-71
2022/07/28 11:00:54;;;;;;;3.50;2.20;;;;;;;;;;5032341;28;20522;-72
2022/07/28 11:03:41;;;;;;;5.68;2.60;;;;;;;;;;5026818;28;20057;-72
2022/07/28 11:06:26;;;;;;;6.28;2.30;;;;;;;;;;5035283;28;20090;-73
2022/07/28 11:08:53;;;;;;;3.90;2.30;;;;;;;;;;5034326;28;20049;-73
2022/07/28 11:11:41;;;;;;;4.35;2.58;;;;;;;;;;5036982;28;20041;-73
2022/07/28 11:14:25;;;;;;;4.25;2.33;;;;;;;;;;5038745;28;20063;-74
2022/07/28 11:16:59;;;;;;;3.58;2.20;;;;;;;;;;5031486;28;20044;-69
2022/07/28 11:19:30;;;;;;;5.00;2.00;;;;;;;;;;5036539;28;20587;-70
2022/07/28 11:24:57;;;;;;;5.03;2.30;;;;;;;;;;5036331;28;20106;-75
2022/07/28 11:27:41;;;;;;;7.80;2.55;;;;;;;;;;5030550;28;20050;-71
2022/07/28 11:30:11;;;;;;;7.25;2.40;;;;;;;;;;5037939;28;20422;-73
2022/07/28 11:32:48;;;;;;;4.80;2.15;;;;;;;;;;5035994;28;20111;-72
2022/07/28 11:35:14;;;;;;;2.70;2.20;;;;;;;;;;5041157;28;20670;-70
2022/07/28 11:37:59;;;;;;;9.13;2.35;;;;;;;;;;5042571;28;20110;-71
2022/07/28 11:40:30;;;;;;;9.30;2.40;;;;;;;;;;5037266;28;20446;-72
2022/07/28 11:43:21;;;;;;;2.75;2.30;;;;;;;;;;5030968;28;20411;-71
2022/07/28 11:45:51;;;;;;;3.80;2.22;;;;;;;;;;5023812;28;20956;-71
2022/07/28 11:48:22;;;;;;;4.63;2.67;;;;;;;;;;5027796;28;20049;-73
2022/07/28 11:51:02;;;;;;;4.82;2.33;;;;;;;;;;5037017;28;20502;-74
2022/07/28 11:53:41;;;;;;;6.73;2.47;;;;;;;;;;5025154;28;20084;-73
2022/07/28 11:56:10;;;;;;;4.32;2.28;;;;;;;;;;5033249;28;20045;-71
2022/07/28 11:58:37;;;;;;;7.30;2.38;;;;;;;;;;5029915;28;20135;-71
2022/07/28 12:01:13;;;;;;;9.52;2.50;;;;;;;;;;5029727;28;20145;-71
2022/07/28 12:03:43;;;;;;;3.22;2.22;;;;;;;;;;5029731;28;20056;-71
2022/07/28 12:06:10;;;;;;;4.63;2.13;;;;;;;;;;5025855;28;20060;-70
2022/07/28 12:08:52;;;;;;;4.85;2.25;;;;;;;;;;5031270;28;20048;-72
2022/07/28 12:11:19;;;;;;;5.85;2.22;;;;;;;;;;5034692;28;20481;-71
2022/07/28 12:13:45;;;;;;;9.25;2.47;;;;;;;;;;5028884;28;20053;-74
2022/07/28 12:16:11;;;;;;;4.00;1.92;;;;;;;;;;5028551;28;20522;-72
2022/07/28 12:18:36;;;;;;;3.45;2.10;;;;;;;;;;5033361;28;20044;-71
2022/07/28 12:21:02;;;;;;;4.88;2.53;;;;;;;;;;5025383;28;20526;-71
2022/07/28 12:23:32;;;;;;;4.55;2.47;;;;;;;;;;5026822;28;20683;-72
2022/07/28 12:26:03;;;;;;;3.28;2.10;;;;;;;;;;5034667;28;20597;-70
2022/07/28 12:28:31;;;;;;;8.48;2.30;;;;;;;;;;5026362;28;20049;-71
2022/07/28 12:31:10;;;;;;;6.28;2.30;;;;;;;;;;5026409;28;20045;-70
2022/07/28 12:33:36;;;;;;;4.32;2.25;;;;;;;;;;5029514;28;20086;-71
2022/07/28 12:36:01;;;;;;;2.30;2.10;;;;;;;;;;5037413;28;20438;-71
2022/07/28 12:38:27;;;;;;;4.78;2.00;;;;;;;;;;5038222;28;20041;-71
2022/07/28 12:40:53;;;;;;;3.05;2.00;;;;;;;;;;5028702;28;20044;-72
2022/07/28 12:43:25;;;;;;;5.82;2.08;;;;;;;;;;5035149;28;20053;-72
2022/07/28 12:45:50;;;;;;;3.95;2.10;;;;;;;;;;5039485;28;20059;-71
2022/07/28 12:48:19;;;;;;;4.65;1.88;;;;;;;;;;5033681;28;20400;-72
2022/07/28 12:50:46;;;;;;;6.35;1.63;;;;;;;;;;5031691;28;20045;-72
2022/07/28 12:53:12;;;;;;;5.10;2.10;;;;;;;;;;5022558;28;20527;-72
2022/07/28 12:55:41;;;;;;;3.22;2.13;;;;;;;;;;5033515;28;20416;-72
2022/07/28 12:58:20;;;;;;;2.58;2.22;;;;;;;;;;5030143;28;20045;-72
2022/07/28 13:00:48;;;;;;;4.55;2.20;;;;;;;;;;5031334;28;20488;-72
2022/07/28 13:03:28;;;;;;;2.25;1.90;;;;;;;;;;5035972;28;20049;-72
2022/07/28 13:06:01;;;;;;;5.97;2.03;;;;;;;;;;5034040;28;20079;-74
2022/07/28 13:08:35;;;;;;;5.15;2.00;;;;;;;;;;5038450;28;20045;-71
2022/07/28 13:11:00;;;;;;;4.28;2.35;;;;;;;;;;5029022;28;20049;-72
2022/07/28 13:13:26;;;;;;;3.20;1.85;;;;;;;;;;5028052;28;20064;-70
2022/07/28 13:16:11;;;;;;;2.03;1.83;;;;;;;;;;5033865;28;20131;-72
2022/07/28 13:18:52;;;;;;;3.35;1.90;;;;;;;;;;5029298;28;20053;-73
2022/07/28 13:21:40;;;;;;;2.38;2.00;;;;;;;;;;5024657;28;20045;-72
2022/07/28 13:24:08;;;;;;;2.47;2.00;;;;;;;;;;5027078;28;20072;-72
2022/07/28 13:26:35;;;;;;;4.22;2.20;;;;;;;;;;5029374;28;20048;-72
2022/07/28 13:29:05;;;;;;;3.15;2.10;;;;;;;;;;5028404;28;20060;-72
2022/07/28 13:31:34;;;;;;;6.28;2.10;;;;;;;;;;5027991;28;20063;-71
2022/07/28 13:34:01;;;;;;;1.98;1.73;;;;;;;;;;5038980;28;20051;-77
2022/07/28 13:36:26;;;;;;;2.28;1.83;;;;;;;;;;5033547;28;20053;-72
2022/07/28 13:38:52;;;;;;;4.53;2.40;;;;;;;;;;5025799;28;20049;-72
2022/07/28 13:41:18;;;;;;;3.42;2.30;;;;;;;;;;5032404;28;20064;-72
2022/07/28 13:43:45;;;;;;;2.83;2.00;;;;;;;;;;5037227;28;20079;-73
2022/07/28 13:46:11;;;;;;;3.97;2.58;;;;;;;;;;5025444;28;20049;-73
2022/07/28 13:48:39;;;;;;;2.63;1.83;;;;;;;;;;5032655;28;20413;-70
2022/07/28 13:51:05;;;;;;;3.22;2.30;;;;;;;;;;5035334;28;20945;-72
2022/07/28 13:53:31;;;;;;;6.70;2.38;;;;;;;;;;5031047;28;20061;-71
2022/07/28 13:55:56;;;;;;;6.20;2.42;;;;;;;;;;5032068;28;20056;-75
2022/07/28 13:58:22;;;;;;;4.60;1.92;;;;;;;;;;5034096;28;20052;-72
2022/07/28 14:00:47;;;;;;;5.28;2.17;;;;;;;;;;5037896;28;20048;-73
2022/07/28 14:03:12;;;;;;;6.13;2.00;;;;;;;;;;5025633;28;20041;-71
2022/07/28 14:05:38;;;;;;;8.20;2.30;;;;;;;;;;5028155;28;20073;-72
2022/07/28 14:08:04;;;;;;;3.13;2.40;;;;;;;;;;5030478;28;20065;-75
2022/07/28 14:10:30;;;;;;;6.60;2.03;;;;;;;;;;5029136;28;20148;-73
2022/07/28 14:12:56;;;;;;;3.13;2.20;;;;;;;;;;5026833;28;20403;-72
2022/07/28 14:15:21;;;;;;;6.00;2.30;;;;;;;;;;5030580;28;20049;-72
2022/07/28 14:17:47;;;;;;;5.13;2.20;;;;;;;;;;5032597;28;20052;-70
2022/07/28 14:20:14;;;;;;;3.67;2.33;;;;;;;;;;5031355;28;20053;-72
2022/07/28 14:22:40;;;;;;;8.60;2.45;;;;;;;;;;5030139;28;20045;-72
2022/07/28 14:25:06;;;;;;;3.30;2.63;;;;;;;;;;5027193;28;20135;-71
2022/07/28 14:27:32;;;;;;;3.20;2.10;;;;;;;;;;5030780;28;20060;-71
2022/07/28 14:29:57;;;;;;;6.70;2.08;;;;;;;;;;5026851;28;20037;-72
2022/07/28 14:32:23;;;;;;;6.47;2.13;;;;;;;;;;5034268;28;20499;-72
2022/07/28 14:34:49;;;;;;;4.25;2.40;;;;;;;;;;5032152;28;21277;-74
2022/07/28 14:37:14;;;;;;;4.03;2.22;;;;;;;;;;5032250;28;20060;-72
2022/07/28 14:39:40;;;;;;;5.00;1.95;;;;;;;;;;5027477;28;20053;-72
2022/07/28 14:42:06;;;;;;;6.97;2.17;;;;;;;;;;5027863;28;20045;-72
2022/07/28 14:44:32;;;;;;;3.97;2.00;;;;;;;;;;5030705;28;20045;-70
2022/07/28 14:46:57;;;;;;;10.55;2.45;;;;;;;;;;5027321;28;20049;-72
2022/07/28 14:49:22;;;;;;;4.82;2.10;;;;;;;;;;5028983;28;20132;-73
2022/07/28 14:51:49;;;;;;;2.60;2.00;;;;;;;;;;5028383;28;20053;-71
2022/07/28 14:54:14;;;;;;;2.00;1.80;;;;;;;;;;5024792;28;20038;-71